Terminal Aerodrome Forecast
Issued by NWS Buffalo, NY

Home | Current Version | Previous Version | Text Only | Print | Product List | Glossary On
Versions: 1 2 3 4 5 6 7 8 9 10 11 12 13 14 15 16 17 18 19
000
FTUS41 KBUF 241750
TAFART
TAF
KART 241750Z 2418/2518 24016G23KT P6SM FEW250
     FM250000 21006KT P6SM FEW250
     FM250500 20006KT P6SM BKN080
     FM251200 24004KT P6SM VCSH OVC060=

USA.gov is the U.S. government's official web portal to all federal, state and local government web resources and services.